Terminal Aerodrome Forecast
Issued by NWS Missoula, MT

Home | Current Version | Previous Version | Text Only | Print | Product List | Glossary On
Versions: 1 2 3 4 5 6 7 8 9 10 11 12 13
000
FTUS45 KMSO 310500
TAFBTM
TAF
KBTM 310520Z 3106/0106 16008KT P6SM SCT080 BKN120
     FM312000 35011G18KT P6SM VCTS BKN080CB
     FM312300 02011G18KT P6SM VCSH BKN100
     FM010200 35008KT P6SM BKN120=

USA.gov is the U.S. government's official web portal to all federal, state and local government web resources and services.